Time;durP1;ratioP1;P1;durP2;ratioP2;P2;SDS_P1;SDS_P2;PMS_P1;PMS_P2;Temp;Humidity;BMP_temperature;BMP_pressure;BME280_temperature;BME280_humidity;BME280_pressure;Samples;Min_cycle;Max_cycle;Signal;HPM_P1;HPM_P2
2023/12/08 00:01:09;;;;;;;92.80;49.90;;;;;;;-2.83;99.34;96921.34;108808;1273;24375;-80
2023/12/08 00:03:38;;;;;;;96.90;53.80;;;;;;;-2.86;99.18;96914.45;108802;1269;22530;-80
2023/12/08 00:06:09;;;;;;;94.70;56.00;;;;;;;-2.89;99.11;96907.85;108781;1273;22644;-80
2023/12/08 00:08:37;;;;;;;;;;;;;;;-2.88;99.23;96898.79;108781;1273;22723;-80
2023/12/08 00:11:07;;;;;;;90.80;52.10;;;;;;;-2.86;99.31;96894.21;108857;1265;22570;-80
2023/12/08 00:13:38;;;;;;;95.40;49.90;;;;;;;-2.84;99.38;96897.18;108778;1273;23967;-80
2023/12/08 00:16:08;;;;;;;87.00;48.60;;;;;;;-2.85;99.25;96896.14;108793;1273;22552;-80
2023/12/08 00:18:37;;;;;;;93.10;50.90;;;;;;;-2.85;99.26;96893.83;108736;1273;22530;-79
2023/12/08 00:21:11;;;;;;;75.50;44.60;;;;;;;-2.83;99.34;96891.60;108782;1273;22527;-80
2023/12/08 00:23:40;;;;;;;66.00;38.80;;;;;;;-2.82;99.25;96886.11;108774;1273;25329;-80
2023/12/08 00:26:08;;;;;;;77.50;44.20;;;;;;;-2.82;99.23;96887.30;108758;1273;24225;-80
2023/12/08 00:28:37;;;;;;;74.80;41.90;;;;;;;-2.83;99.14;96883.94;108774;1270;24300;-79
2023/12/08 00:31:06;;;;;;;75.50;40.80;;;;;;;-2.85;99.31;96886.77;108728;1273;23832;-80
2023/12/08 00:33:34;;;;;;;72.90;39.10;;;;;;;-2.84;99.13;96886.69;108731;1269;23796;-80
2023/12/08 00:36:10;;;;;;;75.60;41.20;;;;;;;-2.86;99.23;96883.96;108743;1270;22542;-80
2023/12/08 00:38:39;;;;;;;70.10;41.00;;;;;;;-2.87;99.21;96873.02;108716;1273;22518;-80
2023/12/08 00:41:10;;;;;;;72.40;41.20;;;;;;;-2.89;99.12;96871.89;108763;1274;22515;-80
2023/12/08 00:43:39;;;;;;;74.10;42.60;;;;;;;-2.87;99.04;96871.54;108824;1273;25240;-80
2023/12/08 00:46:09;;;;;;;77.20;45.00;;;;;;;-2.86;99.15;96861.53;108833;1274;22536;-80
2023/12/08 00:48:37;;;;;;;74.70;42.90;;;;;;;-2.86;99.24;96854.88;108817;1273;22988;-80
2023/12/08 00:51:13;;;;;;;81.00;49.60;;;;;;;-2.86;99.11;96847.20;108787;1273;22563;-80
2023/12/08 00:53:42;;;;;;;102.70;59.60;;;;;;;-2.92;98.96;96849.70;108763;1273;22653;-80
2023/12/08 00:56:14;;;;;;;97.10;53.50;;;;;;;-3.03;98.73;96853.46;108766;1274;22552;-80
2023/12/08 00:58:45;;;;;;;97.40;57.40;;;;;;;-3.08;98.74;96863.55;108748;1266;22567;-80
2023/12/08 01:01:16;;;;;;;114.90;65.80;;;;;;;-3.14;98.71;96861.64;108778;1273;22517;-80
2023/12/08 01:03:45;;;;;;;102.30;58.00;;;;;;;-3.17;98.85;96861.02;108795;1269;22771;-80
2023/12/08 01:06:16;;;;;;;99.40;56.00;;;;;;;-3.20;98.79;96863.08;108754;1273;22517;-80
2023/12/08 01:08:44;;;;;;;88.40;51.10;;;;;;;-3.23;98.92;96869.83;108785;1273;25977;-80
2023/12/08 01:11:13;;;;;;;101.40;55.20;;;;;;;-3.27;98.68;96869.77;108787;1273;22523;-80
2023/12/08 01:13:42;;;;;;;97.30;54.70;;;;;;;-3.33;98.79;96865.95;108774;1273;22536;-80
2023/12/08 01:16:15;;;;;;;97.30;54.70;;;;;;;-3.35;98.70;96870.91;108759;1271;22548;-80
2023/12/08 01:18:45;;;;;;;100.00;56.40;;;;;;;-3.34;98.87;96871.71;108788;1273;22668;-80
2023/12/08 01:21:14;;;;;;;99.30;52.50;;;;;;;-3.34;98.94;96874.63;108758;1273;22525;-80
2023/12/08 01:23:42;;;;;;;97.90;53.70;;;;;;;-3.43;98.59;96870.83;108727;1269;22514;-80
2023/12/08 01:26:12;;;;;;;100.00;55.00;;;;;;;-3.54;98.40;96874.54;108739;1270;23666;-80
2023/12/08 01:28:41;;;;;;;97.60;54.20;;;;;;;-3.59;98.48;96877.42;108727;1273;22613;-80
2023/12/08 01:31:09;;;;;;;89.40;49.70;;;;;;;-3.60;98.71;96880.25;108733;1270;22574;-80
2023/12/08 01:33:40;;;;;;;95.10;51.20;;;;;;;-3.60;98.89;96879.90;108782;1269;22520;-80
2023/12/08 01:36:10;;;;;;;80.40;46.10;;;;;;;-3.56;99.07;96879.92;108756;1273;25417;-80
2023/12/08 01:38:39;;;;;;;83.60;48.90;;;;;;;-3.57;98.95;96877.24;108740;1271;22835;-80
2023/12/08 01:41:12;;;;;;;83.40;48.10;;;;;;;-3.70;98.56;96878.14;108786;1267;22526;-81
2023/12/08 01:43:41;;;;;;;85.60;49.00;;;;;;;-3.78;98.44;96880.05;108806;1273;22540;-80
2023/12/08 01:46:12;;;;;;;98.20;54.60;;;;;;;-3.78;98.62;96881.44;108793;1272;24301;-80
2023/12/08 01:48:44;;;;;;;80.60;47.10;;;;;;;-3.79;98.67;96876.21;108796;1273;24949;-80
2023/12/08 01:51:14;;;;;;;82.40;47.90;;;;;;;-3.80;98.72;96873.71;108759;1273;23843;-80
2023/12/08 01:53:44;;;;;;;82.30;48.50;;;;;;;-3.79;98.79;96879.96;108802;1273;25309;-80
2023/12/08 01:56:14;;;;;;;79.50;44.10;;;;;;;-3.77;98.89;96873.88;108777;1272;22535;-80
2023/12/08 01:58:43;;;;;;;84.10;47.60;;;;;;;-3.75;99.03;96866.20;108769;1273;22518;-80
2023/12/08 02:01:12;;;;;;;85.50;48.10;;;;;;;-3.75;98.99;96864.09;108789;1273;22925;-80
2023/12/08 02:03:48;;;;;;;73.10;42.10;;;;;;;-3.75;98.88;96864.61;108787;1271;22518;-80
2023/12/08 02:06:19;;;;;;;55.20;32.80;;;;;;;-3.78;98.73;96866.92;108764;1273;25056;-80
2023/12/08 02:08:48;;;;;;;63.30;34.20;;;;;;;-3.82;98.77;96865.55;108831;1271;23045;-80
2023/12/08 02:11:18;;;;;;;66.30;38.20;;;;;;;-3.85;98.72;96867.88;108772;1269;22530;-80
2023/12/08 02:13:47;;;;;;;59.00;34.30;;;;;;;-3.87;98.84;96865.02;108764;1268;22553;-80
2023/12/08 02:16:24;;;;;;;64.70;35.20;;;;;;;-3.92;98.77;96862.98;108740;1269;22554;-80
2023/12/08 02:18:55;;;;;;;68.30;39.10;;;;;;;-3.96;98.80;96866.45;108751;1273;24199;-80
2023/12/08 02:21:24;;;;;;;80.50;44.40;;;;;;;-3.98;98.91;96864.96;108789;1273;22598;-80
2023/12/08 02:23:52;;;;;;;81.50;45.50;;;;;;;-4.01;98.90;96867.00;108754;1273;22483;-80
2023/12/08 02:26:28;;;;;;;90.90;47.50;;;;;;;-4.05;98.84;96868.71;108781;1273;25015;-81
2023/12/08 02:28:56;;;;;;;84.00;43.90;;;;;;;-4.08;98.80;96864.25;108767;1271;22486;-80
2023/12/08 02:31:32;;;;;;;84.60;46.30;;;;;;;-4.19;98.50;96868.31;108776;1273;22524;-80
2023/12/08 02:34:06;;;;;;;73.40;39.90;;;;;;;-4.25;98.71;96863.73;108810;1257;22678;-80
2023/12/08 02:36:36;;;;;;;74.10;38.30;;;;;;;-4.29;98.78;96865.96;108778;1269;22835;-81
2023/12/08 02:39:10;;;;;;;73.00;37.80;;;;;;;-4.36;98.66;96867.30;108752;1271;25224;-81
2023/12/08 02:41:39;;;;;;;72.70;38.70;;;;;;;-4.44;98.57;96868.17;108765;1267;22548;-80
2023/12/08 02:44:07;;;;;;;69.80;40.60;;;;;;;-4.52;98.46;96866.42;108786;1272;24213;-80
2023/12/08 02:46:35;;;;;;;74.20;40.50;;;;;;;-4.57;98.55;96858.55;108781;1270;22505;-80
2023/12/08 02:49:04;;;;;;;87.90;48.80;;;;;;;-4.59;98.56;96856.91;108769;1273;23022;-80
2023/12/08 02:51:33;;;;;;;87.40;47.60;;;;;;;-4.58;98.71;96855.76;108811;1270;22643;-80
2023/12/08 02:54:01;;;;;;;85.10;47.10;;;;;;;-4.60;98.72;96856.89;108838;1267;22608;-80
2023/12/08 02:56:32;;;;;;;92.60;50.90;;;;;;;-4.64;98.53;96860.58;108751;1273;22660;-81
2023/12/08 02:59:00;;;;;;;91.50;48.20;;;;;;;-4.69;98.55;96859.93;108715;1267;23342;-81
2023/12/08 03:01:31;;;;;;;84.50;45.50;;;;;;;-4.70;98.62;96867.39;108797;1267;22494;-81
2023/12/08 03:04:02;;;;;;;87.40;48.60;;;;;;;-4.72;98.71;96869.95;108794;1270;22722;-81
2023/12/08 03:06:30;;;;;;;86.30;47.50;;;;;;;-4.73;98.75;96871.52;108804;1273;22520;-81
2023/12/08 03:08:59;;;;;;;92.40;49.60;;;;;;;-4.77;98.67;96875.05;108646;1267;162162;-80
2023/12/08 03:11:30;;;;;;;83.10;46.00;;;;;;;-4.83;98.60;96874.40;108820;1270;22598;-80
2023/12/08 03:14:00;;;;;;;83.60;46.50;;;;;;;-4.87;98.48;96876.88;108767;1273;22624;-80
2023/12/08 03:16:29;;;;;;;75.70;42.30;;;;;;;-4.95;98.25;96876.08;108785;1273;23094;-80
2023/12/08 03:19:03;;;;;;;73.70;39.60;;;;;;;-5.10;97.84;96877.96;108775;1273;24365;-80
2023/12/08 03:21:31;;;;;;;69.90;38.70;;;;;;;-5.17;98.24;96878.17;108757;1270;22539;-81
2023/12/08 03:24:00;;;;;;;74.70;38.90;;;;;;;-5.20;98.22;96881.49;108779;1270;22571;-80
2023/12/08 03:26:31;;;;;;;64.80;33.10;;;;;;;-5.23;98.32;96878.33;108777;1273;22644;-80
2023/12/08 03:29:02;;;;;;;64.70;35.10;;;;;;;-5.22;98.51;96873.65;108808;1273;22573;-80
2023/12/08 03:31:33;;;;;;;66.20;36.40;;;;;;;-5.28;98.53;96876.64;108751;1273;22521;-81
2023/12/08 03:34:01;;;;;;;67.90;37.40;;;;;;;-5.34;98.46;96880.61;108746;1273;23367;-80
2023/12/08 03:36:30;;;;;;;68.50;38.40;;;;;;;-5.34;98.45;96885.65;108810;1267;22525;-80
2023/12/08 03:39:00;;;;;;;61.50;35.00;;;;;;;-5.32;98.85;96888.95;108774;1273;22517;-81
2023/12/08 03:41:28;;;;;;;67.30;33.50;;;;;;;-5.43;98.27;96893.56;108798;1266;22528;-80
2023/12/08 03:43:57;;;;;;;63.90;32.10;;;;;;;-5.60;98.04;96886.98;108785;1273;22867;-80
2023/12/08 03:46:25;;;;;;;68.80;35.70;;;;;;;-5.62;98.32;96884.35;108743;1273;22526;-80
2023/12/08 03:48:53;;;;;;;48.60;26.20;;;;;;;-5.61;98.41;96882.92;108759;1273;22473;-80
2023/12/08 03:51:24;;;;;;;71.40;37.60;;;;;;;-5.59;98.59;96892.08;108783;1273;22677;-80
2023/12/08 03:53:54;;;;;;;74.40;37.40;;;;;;;-5.57;98.80;96893.73;108771;1273;25329;-80
2023/12/08 03:56:25;;;;;;;77.10;43.50;;;;;;;-5.54;98.93;96891.14;108755;1273;24295;-81
2023/12/08 03:58:53;;;;;;;68.90;39.00;;;;;;;-5.51;98.95;96894.27;108728;1273;22524;-80
2023/12/08 04:01:22;;;;;;;81.00;43.70;;;;;;;-5.58;98.67;96891.71;108785;1273;22492;-80
2023/12/08 04:03:50;;;;;;;80.80;43.10;;;;;;;-5.59;98.74;96891.73;108782;1267;24179;-81
2023/12/08 04:06:21;;;;;;;74.70;40.90;;;;;;;-5.57;99.01;96888.34;108753;1273;24163;-80
2023/12/08 04:08:49;;;;;;;72.00;39.90;;;;;;;-5.57;98.81;96880.86;108763;1270;22525;-80
2023/12/08 04:11:18;;;;;;;71.10;38.20;;;;;;;-5.62;98.83;96876.95;108801;1273;22546;-80
2023/12/08 04:13:46;;;;;;;62.70;34.90;;;;;;;-5.68;98.56;96871.39;108789;1270;22523;-80
2023/12/08 04:16:16;;;;;;;55.00;29.60;;;;;;;-5.73;98.40;96874.81;108797;1267;22642;-80
2023/12/08 04:18:45;;;;;;;51.10;29.70;;;;;;;-5.78;98.62;96873.12;108735;1273;22521;-80
2023/12/08 04:21:20;;;;;;;35.50;18.60;;;;;;;-5.73;98.88;96869.02;108807;1267;22218;-80
2023/12/08 04:23:49;;;;;;;32.20;16.10;;;;;;;-5.76;98.73;96869.52;108770;1273;25531;-81
2023/12/08 04:26:24;;;;;;;34.30;16.70;;;;;;;-5.81;98.80;96867.10;108757;1267;22527;-80
2023/12/08 04:28:54;;;;;;;49.10;24.10;;;;;;;-5.88;98.59;96869.99;108798;1273;22637;-80
2023/12/08 04:31:21;;;;;;;;;;;;;;;-5.93;98.59;96870.02;108823;1267;22531;-80
2023/12/08 04:33:52;;;;;;;46.90;25.20;;;;;;;-5.85;98.85;96867.41;108801;1273;23190;-80
2023/12/08 04:36:20;;;;;;;45.80;24.80;;;;;;;-5.78;99.39;96864.02;108766;1273;24081;-80
2023/12/08 04:38:48;;;;;;;36.30;19.80;;;;;;;-5.64;99.62;96858.17;108772;1273;24944;-80
2023/12/08 04:41:17;;;;;;;51.80;27.10;;;;;;;-5.54;99.84;96867.02;108817;1273;25293;-80
2023/12/08 04:43:48;;;;;;;56.70;30.80;;;;;;;-5.52;99.82;96868.48;108767;1267;22716;-80
2023/12/08 04:46:17;;;;;;;62.40;36.00;;;;;;;-5.48;99.73;96870.13;108770;1273;24935;-80
2023/12/08 04:48:48;;;;;;;62.90;35.70;;;;;;;-5.46;99.79;96867.84;108773;1273;22794;-80
2023/12/08 04:51:16;;;;;;;41.80;23.50;;;;;;;-5.44;99.75;96869.90;108748;1273;22539;-80
2023/12/08 04:53:47;;;;;;;65.00;39.10;;;;;;;-5.42;99.72;96865.09;108727;1273;22543;-81
2023/12/08 04:56:26;;;;;;;50.50;28.20;;;;;;;-5.38;99.79;96867.27;108776;1273;22493;-81
2023/12/08 04:58:56;;;;;;;;;;;;;;;-5.38;99.80;96868.61;108710;1273;22498;-80
2023/12/08 05:01:24;;;;;;;46.00;25.00;;;;;;;-5.37;99.67;96867.00;108784;1268;22513;-80
2023/12/08 05:03:52;;;;;;;51.30;28.50;;;;;;;-5.33;99.74;96871.48;108793;1273;23642;-81
2023/12/08 05:06:29;;;;;;;48.10;24.60;;;;;;;-5.34;99.65;96874.69;108724;1273;23285;-80
2023/12/08 05:08:59;;;;;;;43.30;21.30;;;;;;;-5.34;99.66;96876.23;108748;1273;22565;-80
2023/12/08 05:11:33;;;;;;;62.30;36.40;;;;;;;-5.25;99.85;96881.36;108774;1273;22543;-80
2023/12/08 05:14:02;;;;;;;64.70;36.50;;;;;;;-5.20;99.89;96879.09;108765;1273;22521;-80
2023/12/08 05:16:35;;;;;;;56.60;31.00;;;;;;;-5.24;99.74;96881.45;108754;1266;22534;-80
2023/12/08 05:19:07;;;;;;;62.30;36.20;;;;;;;-5.25;99.73;96875.04;108723;1273;22569;-80
2023/12/08 05:21:37;;;;;;;60.10;34.30;;;;;;;-5.25;99.60;96866.73;108846;1268;25377;-80
2023/12/08 05:24:09;;;;;;;63.90;33.60;;;;;;;-5.29;99.60;96864.05;108803;1273;25460;-80
2023/12/08 05:26:38;;;;;;;56.50;29.80;;;;;;;-5.30;99.60;96860.39;108766;1266;22517;-80
2023/12/08 05:29:09;;;;;;;69.60;36.60;;;;;;;-5.28;99.56;96856.55;108740;1263;35383;-80
2023/12/08 05:31:40;;;;;;;60.10;32.90;;;;;;;-5.27;99.44;96854.77;108799;1273;22531;-81
2023/12/08 05:34:09;;;;;;;65.30;34.90;;;;;;;-5.30;99.35;96856.48;108771;1273;22531;-80
2023/12/08 05:36:38;;;;;;;55.90;34.80;;;;;;;-5.33;99.25;96855.40;108748;1273;25407;-80
2023/12/08 05:39:07;;;;;;;58.40;32.80;;;;;;;-5.35;99.38;96854.55;108754;1266;22524;-80
2023/12/08 05:41:36;;;;;;;67.80;36.70;;;;;;;-5.32;99.70;96855.81;108786;1273;23818;-80
2023/12/08 05:44:04;;;;;;;56.90;31.60;;;;;;;-5.30;99.68;96851.46;108788;1273;22534;-80
2023/12/08 05:46:33;;;;;;;60.70;35.70;;;;;;;-5.29;99.48;96847.07;108772;1266;22584;-80
2023/12/08 05:49:01;;;;;;;;;;;;;;;-5.31;99.43;96845.82;108777;1273;22617;-80
2023/12/08 05:51:31;;;;;;;59.60;32.80;;;;;;;-5.40;99.24;96846.68;108779;1273;24109;-80
2023/12/08 05:54:00;;;;;;;68.30;36.10;;;;;;;-5.45;99.11;96850.19;108763;1273;22532;-80
2023/12/08 05:56:28;;;;;;;65.90;35.40;;;;;;;-5.46;99.22;96852.12;108769;1273;22995;-80
2023/12/08 05:58:59;;;;;;;58.10;30.70;;;;;;;-5.44;99.42;96857.63;108729;1273;22671;-79
2023/12/08 06:01:29;;;;;;;63.10;36.10;;;;;;;-5.46;99.36;96852.02;108803;1273;25431;-80
2023/12/08 06:03:58;;;;;;;58.30;33.50;;;;;;;-5.47;99.19;96845.20;108798;1268;22591;-80
2023/12/08 06:06:27;;;;;;;64.90;35.90;;;;;;;-5.57;98.60;96847.19;108759;1267;22520;-80
2023/12/08 06:08:56;;;;;;;61.40;33.10;;;;;;;-5.68;98.25;96844.70;108767;1273;22513;-79
2023/12/08 06:11:33;;;;;;;59.70;31.30;;;;;;;-5.77;98.44;96845.71;108806;1270;22538;-80
2023/12/08 06:14:05;;;;;;;58.20;31.20;;;;;;;-5.76;98.58;96847.98;108801;1249;22520;-79
2023/12/08 06:16:33;;;;;;;60.10;29.40;;;;;;;-5.78;98.74;96848.72;108759;1266;22531;-79
2023/12/08 06:19:04;;;;;;;54.60;26.50;;;;;;;-5.74;98.99;96851.84;108752;1273;23756;-79
2023/12/08 06:21:33;;;;;;;59.80;33.20;;;;;;;-5.76;98.93;96844.97;108792;1272;22531;-80
2023/12/08 06:24:02;;;;;;;56.90;30.60;;;;;;;-5.82;98.85;96842.80;108769;1273;23748;-80
2023/12/08 06:26:33;;;;;;;49.30;24.90;;;;;;;-5.82;99.00;96845.12;108770;1273;24240;-80
2023/12/08 06:29:02;;;;;;;56.90;29.60;;;;;;;-5.76;99.17;96840.95;108743;1273;22526;-79
2023/12/08 06:31:31;;;;;;;40.40;22.70;;;;;;;-5.77;99.04;96841.84;108791;1267;22521;-80
2023/12/08 06:34:00;;;;;;;50.70;29.70;;;;;;;-5.73;99.21;96836.83;108726;1273;25258;-80
2023/12/08 06:36:28;;;;;;;60.20;33.10;;;;;;;-5.62;99.33;96839.05;108737;1266;22740;-80
2023/12/08 06:38:57;;;;;;;61.10;31.70;;;;;;;-5.54;99.65;96842.58;108720;1273;24201;-79
2023/12/08 06:41:25;;;;;;;57.50;32.10;;;;;;;-5.49;99.46;96843.00;108729;1266;22556;-80
2023/12/08 06:43:54;;;;;;;55.50;32.30;;;;;;;-5.45;99.53;96835.13;108775;1273;22473;-80
2023/12/08 06:46:22;;;;;;;55.60;28.80;;;;;;;-5.41;99.58;96835.48;108790;1273;22525;-80
2023/12/08 06:48:53;;;;;;;62.90;30.90;;;;;;;-5.38;99.49;96829.94;108805;1267;26657;-80
2023/12/08 06:51:21;;;;;;;57.70;30.20;;;;;;;-5.36;99.38;96827.10;108820;1273;25378;-80
2023/12/08 06:53:50;;;;;;;56.50;27.80;;;;;;;-5.36;99.33;96822.77;108735;1268;23948;-80
2023/12/08 06:56:18;;;;;;;58.40;30.30;;;;;;;-5.35;99.23;96818.08;108753;1273;22538;-80
2023/12/08 06:58:46;;;;;;;54.20;25.90;;;;;;;-5.30;99.25;96818.84;108740;1273;22481;-80
2023/12/08 07:01:15;;;;;;;53.80;26.30;;;;;;;-5.17;99.32;96822.58;108766;1273;25229;-80
2023/12/08 07:03:44;;;;;;;52.40;28.30;;;;;;;-4.91;99.46;96818.21;108751;1266;22556;-80
2023/12/08 07:06:17;;;;;;;51.90;27.70;;;;;;;-4.60;99.62;96819.80;108760;1273;22546;-80
2023/12/08 07:08:46;;;;;;;44.00;23.80;;;;;;;-4.36;99.49;96822.64;108745;1273;22533;-80
2023/12/08 07:11:17;;;;;;;40.00;23.30;;;;;;;-4.17;99.47;96822.19;108725;1273;22539;-80
2023/12/08 07:13:47;;;;;;;45.50;27.20;;;;;;;-3.99;99.55;96825.76;108723;1273;22552;-80
2023/12/08 07:16:16;;;;;;;43.20;26.60;;;;;;;-3.74;99.25;96828.23;108752;1267;23960;-80
2023/12/08 07:18:47;;;;;;;43.10;25.80;;;;;;;-3.46;98.95;96828.25;108791;1273;23960;-80
2023/12/08 07:21:16;;;;;;;45.30;29.00;;;;;;;-3.18;98.64;96823.36;108764;1267;22526;-80
2023/12/08 07:23:45;;;;;;;37.00;21.10;;;;;;;-2.92;98.26;96827.29;108794;1272;25296;-80
2023/12/08 07:26:16;;;;;;;44.40;26.60;;;;;;;-2.71;98.19;96825.09;108788;1273;26538;-80
2023/12/08 07:28:47;;;;;;;43.50;26.30;;;;;;;-2.82;97.86;96825.69;108722;1273;23923;-80
2023/12/08 07:31:17;;;;;;;45.50;29.20;;;;;;;-2.53;97.83;96826.29;108793;1251;22543;-80
2023/12/08 07:33:45;;;;;;;45.30;28.30;;;;;;;-2.24;97.86;96829.81;108777;1273;22634;-80
2023/12/08 07:36:16;;;;;;;40.40;26.40;;;;;;;-2.06;97.52;96826.55;108788;1273;22591;-80
2023/12/08 07:38:44;;;;;;;38.60;25.60;;;;;;;-1.85;97.10;96820.40;108747;1273;22632;-80
2023/12/08 07:41:13;;;;;;;41.60;26.30;;;;;;;-1.97;95.98;96828.27;108766;1269;22893;-80
2023/12/08 07:43:45;;;;;;;44.40;24.70;;;;;;;-2.27;95.63;96830.31;108772;1273;25427;-80
2023/12/08 07:46:15;;;;;;;37.00;21.70;;;;;;;-2.59;95.61;96829.25;108726;1273;24283;-80
2023/12/08 07:48:44;;;;;;;39.80;24.90;;;;;;;-2.91;95.77;96829.64;108724;1272;22554;-80
2023/12/08 07:51:15;;;;;;;38.90;23.00;;;;;;;-2.93;96.25;96831.55;108755;1270;22547;-80
2023/12/08 07:53:46;;;;;;;38.40;23.90;;;;;;;-2.75;96.51;96826.02;108775;1269;23490;-80
2023/12/08 07:56:15;;;;;;;40.30;25.30;;;;;;;-2.59;96.27;96829.72;108761;1273;24304;-80
2023/12/08 07:58:46;;;;;;;43.40;26.80;;;;;;;-2.47;95.94;96826.20;108767;1272;22658;-80
2023/12/08 08:01:14;;;;;;;42.50;26.10;;;;;;;-2.34;95.89;96828.23;108785;1273;22530;-80
2023/12/08 08:03:45;;;;;;;41.20;26.30;;;;;;;-2.22;95.97;96830.71;108753;1273;22534;-80
2023/12/08 08:06:15;;;;;;;42.50;26.90;;;;;;;-2.07;96.13;96829.02;108764;1267;25881;-80
2023/12/08 08:08:42;;;;;;;;;;;;;;;-1.93;95.81;96827.95;108755;1273;23578;-80
2023/12/08 08:11:13;;;;;;;43.30;26.10;;;;;;;-2.10;94.81;96827.65;108749;1272;22532;-80
2023/12/08 08:13:42;;;;;;;30.90;18.20;;;;;;;-2.23;94.73;96824.09;108772;1273;24289;-80
2023/12/08 08:16:11;;;;;;;36.40;21.70;;;;;;;-2.32;94.68;96818.66;108720;1266;22686;-80
2023/12/08 08:18:40;;;;;;;27.40;15.30;;;;;;;-2.55;94.03;96823.27;108770;1266;22627;-80
2023/12/08 08:21:09;;;;;;;35.20;22.80;;;;;;;-2.72;93.77;96827.27;108828;1273;22546;-80
2023/12/08 08:23:41;;;;;;;31.30;16.70;;;;;;;-2.80;93.84;96834.77;108863;1270;23355;-80
2023/12/08 08:26:10;;;;;;;26.20;15.90;;;;;;;-2.89;93.25;96831.63;108849;1266;25456;-80
2023/12/08 08:28:39;;;;;;;39.30;22.20;;;;;;;-3.10;92.22;96836.89;108800;1272;24187;-80
2023/12/08 08:31:09;;;;;;;34.20;18.60;;;;;;;-3.25;92.25;96842.04;108890;1273;22748;-80
2023/12/08 08:33:37;;;;;;;36.60;20.40;;;;;;;-3.30;92.25;96839.84;108864;1267;22531;-80
2023/12/08 08:36:08;;;;;;;36.60;21.30;;;;;;;-3.30;92.49;96840.36;108899;1272;22538;-80
2023/12/08 08:38:37;;;;;;;35.50;17.20;;;;;;;-3.20;92.78;96844.98;108870;1273;22727;-80
2023/12/08 08:41:05;;;;;;;;;;;;;;;-3.20;92.61;96844.02;108846;1266;24372;-80
2023/12/08 08:43:34;;;;;;;42.90;23.40;;;;;;;-3.09;93.26;96841.60;108832;1272;22535;-80
2023/12/08 08:46:05;;;;;;;38.60;21.50;;;;;;;-2.90;93.37;96841.04;108829;1266;23740;-80
2023/12/08 08:48:34;;;;;;;36.30;19.10;;;;;;;-2.81;93.37;96841.86;108767;1272;22550;-80
2023/12/08 08:51:07;;;;;;;37.50;22.60;;;;;;;-2.74;93.09;96841.20;108875;1273;22540;-81
2023/12/08 08:53:35;;;;;;;31.00;16.20;;;;;;;-2.74;92.81;96836.81;108827;1266;22777;-81
2023/12/08 08:56:12;;;;;;;37.40;22.30;;;;;;;-2.85;92.38;96824.91;108800;1273;22762;-80
2023/12/08 08:58:45;;;;;;;45.30;22.30;;;;;;;-2.90;92.33;96831.10;108753;1273;22583;-80
2023/12/08 09:01:15;;;;;;;34.60;18.50;;;;;;;-2.99;92.26;96831.97;108797;1266;25457;-80
2023/12/08 09:03:43;;;;;;;35.20;20.20;;;;;;;-2.98;92.42;96828.71;108871;1273;23171;-80
2023/12/08 09:06:11;;;;;;;35.90;22.60;;;;;;;-2.92;92.54;96821.08;108817;1273;22534;-80
2023/12/08 09:08:41;;;;;;;31.40;19.50;;;;;;;-2.94;92.29;96826.19;108783;1273;22527;-80
2023/12/08 09:11:09;;;;;;;33.40;19.60;;;;;;;-2.87;92.35;96819.23;108843;1273;23554;-80
2023/12/08 09:13:39;;;;;;;30.70;17.50;;;;;;;-2.92;92.14;96819.88;108839;1266;22516;-80
2023/12/08 09:16:16;;;;;;;44.80;25.70;;;;;;;-2.96;92.21;96815.69;108837;1273;22568;-80
2023/12/08 09:18:44;;;;;;;37.60;22.60;;;;;;;-2.85;92.59;96813.45;108799;1273;22516;-80
2023/12/08 09:21:16;;;;;;;38.30;22.60;;;;;;;-2.76;92.41;96815.80;108843;1268;23615;-80
2023/12/08 09:23:47;;;;;;;38.00;22.80;;;;;;;-2.62;92.79;96813.85;108861;1266;23554;-80
2023/12/08 09:26:15;;;;;;;36.80;20.10;;;;;;;-2.45;92.82;96812.84;108882;1267;23742;-80
2023/12/08 09:28:46;;;;;;;31.60;18.20;;;;;;;-2.42;92.45;96812.92;108863;1273;22923;-80
2023/12/08 09:31:17;;;;;;;34.90;19.20;;;;;;;-2.44;92.06;96812.00;108843;1273;24314;-80
2023/12/08 09:33:47;;;;;;;35.40;20.90;;;;;;;-2.53;91.82;96821.61;108818;1259;23481;-80
2023/12/08 09:36:16;;;;;;;34.80;21.50;;;;;;;-2.50;92.11;96825.50;108796;1269;22538;-80
2023/12/08 09:38:45;;;;;;;36.00;22.80;;;;;;;-2.29;92.41;96821.79;108845;1272;25420;-80
2023/12/08 09:41:18;;;;;;;39.50;23.40;;;;;;;-2.20;92.10;96816.13;108831;1273;24003;-80
2023/12/08 09:43:54;;;;;;;34.20;20.30;;;;;;;-2.00;92.66;96812.94;108826;1269;25462;-80
2023/12/08 09:46:24;;;;;;;38.00;23.30;;;;;;;-1.91;92.37;96804.10;108810;1272;22906;-80
2023/12/08 09:48:58;;;;;;;38.60;24.10;;;;;;;-1.73;92.61;96799.00;108817;1272;23458;-80
2023/12/08 09:51:28;;;;;;;37.10;23.20;;;;;;;-1.67;92.27;96799.11;108867;1273;22533;-80
2023/12/08 09:53:57;;;;;;;34.70;22.50;;;;;;;-1.58;92.10;96801.07;108842;1266;24315;-80
2023/12/08 09:56:30;;;;;;;32.40;22.40;;;;;;;-1.39;92.44;96796.72;108841;1273;25284;-80
2023/12/08 09:59:08;;;;;;;36.40;22.50;;;;;;;-1.28;91.95;96794.21;108841;1266;25492;-80
2023/12/08 10:01:39;;;;;;;35.20;21.60;;;;;;;-1.33;91.62;96789.67;108838;1273;22470;-80
2023/12/08 10:04:06;;;;;;;;;;;;;;;-1.20;91.82;96786.30;108823;1272;22508;-80
2023/12/08 10:06:39;;;;;;;33.30;21.30;;;;;;;-1.11;91.55;96787.34;108816;1272;25367;-80
2023/12/08 10:09:12;;;;;;;36.70;23.80;;;;;;;-1.02;91.36;96776.52;108849;1266;24331;-80
2023/12/08 10:11:44;;;;;;;33.70;22.10;;;;;;;-1.00;91.26;96768.05;108872;1273;23679;-80
2023/12/08 10:14:14;;;;;;;34.00;21.80;;;;;;;-0.90;91.40;96766.88;108813;1273;25430;-81
2023/12/08 10:16:44;;;;;;;30.80;20.50;;;;;;;-0.76;91.39;96754.80;108872;1269;22597;-81
2023/12/08 10:19:12;;;;;;;30.60;20.40;;;;;;;-0.72;90.95;96751.27;108746;1266;22577;-81
2023/12/08 10:21:43;;;;;;;31.90;18.90;;;;;;;-0.76;90.73;96745.71;108825;1273;23405;-81
2023/12/08 10:24:12;;;;;;;32.70;21.00;;;;;;;-0.96;89.64;96741.46;108849;1272;22942;-81
2023/12/08 10:26:40;;;;;;;;;;;;;;;-1.00;90.01;96732.94;108839;1273;22463;-81
2023/12/08 10:29:12;;;;;;;35.20;22.90;;;;;;;-1.05;89.67;96722.70;108837;1273;22664;-81
2023/12/08 10:31:41;;;;;;;35.90;22.20;;;;;;;-0.92;90.24;96711.19;108802;1266;25271;-81
2023/12/08 10:34:12;;;;;;;36.30;24.00;;;;;;;-0.69;90.37;96711.23;108831;1273;22514;-81
2023/12/08 10:36:43;;;;;;;39.30;24.10;;;;;;;-0.58;90.07;96707.30;108829;1250;22516;-81
2023/12/08 10:39:12;;;;;;;36.80;24.80;;;;;;;-0.58;89.90;96713.31;108826;1251;22529;-81
2023/12/08 10:41:43;;;;;;;38.90;26.00;;;;;;;-0.36;90.29;96711.39;108880;1269;22539;-81
2023/12/08 10:44:19;;;;;;;34.80;22.20;;;;;;;-0.15;90.04;96712.39;108808;1274;22545;-81
2023/12/08 10:46:51;;;;;;;34.60;22.70;;;;;;;-0.02;89.83;96706.95;108802;1273;22776;-81
2023/12/08 10:49:20;;;;;;;37.00;22.90;;;;;;;0.23;90.28;96703.60;108827;1273;23831;-81
2023/12/08 10:51:49;;;;;;;31.80;20.30;;;;;;;0.38;89.51;96698.41;108830;1269;22503;-81
2023/12/08 10:54:18;;;;;;;32.40;22.70;;;;;;;0.49;89.26;96699.41;108914;1273;23750;-81
2023/12/08 10:56:50;;;;;;;36.30;22.50;;;;;;;0.57;89.04;96694.63;108890;1273;22739;-81
2023/12/08 10:59:24;;;;;;;32.50;20.70;;;;;;;0.66;89.18;96697.43;108826;1268;22528;-81
2023/12/08 11:01:55;;;;;;;28.80;19.90;;;;;;;0.72;88.54;96701.77;108836;1273;22564;-81
2023/12/08 11:04:26;;;;;;;34.30;21.00;;;;;;;0.63;87.90;96705.97;108749;1273;23801;-81
2023/12/08 11:07:02;;;;;;;33.20;21.60;;;;;;;0.41;87.24;96710.50;108841;1266;25243;-81
2023/12/08 11:09:39;;;;;;;34.20;21.90;;;;;;;0.27;87.54;96717.09;108898;1273;24314;-81
2023/12/08 11:12:10;;;;;;;32.40;22.20;;;;;;;0.33;87.92;96716.48;108796;1273;22555;-82
2023/12/08 11:14:45;;;;;;;34.70;22.20;;;;;;;0.50;87.89;96720.11;108872;1269;25420;-81
2023/12/08 11:17:21;;;;;;;33.10;21.90;;;;;;;0.60;87.66;96717.40;108861;1269;23410;-81
2023/12/08 11:19:50;;;;;;;38.40;23.70;;;;;;;0.56;87.47;96719.52;108803;1270;22541;-82
2023/12/08 11:22:22;;;;;;;42.90;26.50;;;;;;;0.45;87.00;96724.21;108867;1273;22528;-81
2023/12/08 11:24:53;;;;;;;37.00;24.20;;;;;;;0.49;87.21;96725.85;108801;1267;22492;-81